Time;durP1;ratioP1;P1;durP2;ratioP2;P2;SDS_P1;SDS_P2;PMS_P1;PMS_P2;Temp;Humidity;BMP_temperature;BMP_pressure;BME280_temperature;BME280_humidity;BME280_pressure;Samples;Min_cycle;Max_cycle;Signal;HPM_P1;HPM_P2
2022/07/06 00:00:33;;;;;;;4.03;1.70;;;14.80;99.90;;;;;;5094675;28;20174;-74
2022/07/06 00:02:59;;;;;;;1.80;1.70;;;14.80;99.90;;;;;;5091625;28;20458;-67
2022/07/06 00:05:25;;;;;;;1.50;1.40;;;14.80;99.90;;;;;;5093020;28;20647;-75
2022/07/06 00:07:51;;;;;;;3.93;1.80;;;14.70;99.90;;;;;;5094903;28;20170;-75
2022/07/06 00:10:16;;;;;;;2.20;1.43;;;14.70;99.90;;;;;;5094876;28;20735;-67
2022/07/06 00:12:42;;;;;;;2.70;1.60;;;14.70;99.90;;;;;;5094030;28;20174;-68
2022/07/06 00:15:08;;;;;;;2.93;1.13;;;14.70;99.90;;;;;;5093726;28;20288;-75
2022/07/06 00:17:34;;;;;;;1.43;1.33;;;14.80;99.90;;;;;;5094724;28;20173;-75
2022/07/06 00:20:00;;;;;;;1.60;1.50;;;14.80;99.90;;;;;;5094128;28;20375;-68
2022/07/06 00:22:25;;;;;;;2.10;1.50;;;14.80;99.90;;;;;;5093817;28;20633;-68
2022/07/06 00:24:51;;;;;;;2.70;1.53;;;14.90;99.90;;;;;;5092139;28;20701;-75
2022/07/06 00:27:17;;;;;;;1.73;1.33;;;14.80;99.90;;;;;;5093472;28;20180;-68
2022/07/06 00:29:43;;;;;;;1.63;1.50;;;14.80;99.90;;;;;;5094714;28;20169;-74
2022/07/06 00:32:11;;;;;;;3.03;1.60;;;14.80;99.90;;;;;;5094097;28;20161;-71
2022/07/06 00:34:39;;;;;;;2.00;1.17;;;14.70;99.90;;;;;;5093275;28;20457;-74
2022/07/06 00:37:05;;;;;;;3.33;1.90;;;14.70;99.90;;;;;;5093768;28;20415;-69
2022/07/06 00:39:31;;;;;;;6.10;1.47;;;14.40;99.90;;;;;;5094549;28;20378;-76
2022/07/06 00:41:57;;;;;;;1.83;1.57;;;14.50;99.90;;;;;;5094208;28;20800;-68
2022/07/06 00:44:22;;;;;;;4.40;1.90;;;14.50;99.90;;;;;;5092217;28;20628;-67
2022/07/06 00:46:48;;;;;;;1.60;1.50;;;14.60;99.90;;;;;;5094008;28;20166;-68
2022/07/06 00:51:59;;;;;;;1.73;1.50;;;14.50;99.90;;;;;;5093931;28;20260;-74
2022/07/06 00:54:26;;;;;;;2.03;1.63;;;14.40;99.90;;;;;;5091488;28;20485;-72
2022/07/06 00:56:51;;;;;;;1.10;1.00;;;14.40;99.90;;;;;;5092458;28;20419;-75
2022/07/06 00:59:17;;;;;;;1.90;1.50;;;14.50;99.90;;;;;;5093929;28;20416;-67
2022/07/06 01:01:43;;;;;;;2.30;1.53;;;14.40;99.90;;;;;;5093064;28;20177;-75
2022/07/06 01:04:09;;;;;;;1.40;1.30;;;14.40;99.90;;;;;;5091986;28;20996;-75
2022/07/06 01:06:35;;;;;;;2.03;1.43;;;14.50;99.90;;;;;;5093909;28;20177;-75
2022/07/06 01:09:01;;;;;;;2.83;1.50;;;14.40;99.90;;;;;;5093913;28;20178;-68
2022/07/06 01:11:27;;;;;;;1.53;1.40;;;14.40;99.90;;;;;;5093155;28;20399;-74
2022/07/06 01:13:54;;;;;;;1.53;1.10;;;14.50;99.90;;;;;;5091587;28;20439;-68
2022/07/06 01:16:20;;;;;;;3.80;1.40;;;14.50;99.90;;;;;;5092897;28;20993;-75
2022/07/06 01:18:46;;;;;;;5.23;1.80;;;14.50;99.90;;;;;;5093703;28;20449;-67
2022/07/06 01:21:14;;;;;;;4.67;1.40;;;14.50;99.90;;;;;;5092768;28;20166;-75
2022/07/06 01:23:47;;;;;;;1.83;1.07;;;14.50;99.90;;;;;;5091620;28;20544;-68
2022/07/06 01:26:15;;;;;;;7.70;1.83;;;14.50;99.90;;;;;;5093682;28;20403;-67
2022/07/06 01:28:42;;;;;;;1.57;1.23;;;14.50;99.90;;;;;;5093540;28;20844;-67
2022/07/06 01:31:34;;;;;;;2.07;1.47;;;14.50;99.90;;;;;;5092870;28;20740;-69
2022/07/06 01:34:00;;;;;;;1.93;1.27;;;14.50;99.90;;;;;;5088370;28;20491;-74
2022/07/06 01:36:26;;;;;;;1.30;1.20;;;14.40;99.90;;;;;;5093481;28;20411;-74
2022/07/06 01:38:58;;;;;;;5.30;1.20;;;14.40;99.90;;;;;;5091332;28;20187;-68
2022/07/06 01:41:25;;;;;;;2.73;1.67;;;14.50;99.90;;;;;;5093344;28;20660;-67
2022/07/06 01:43:51;;;;;;;2.80;1.10;;;14.50;99.90;;;;;;5090013;28;20547;-74
2022/07/06 01:46:16;;;;;;;1.47;1.37;;;14.50;99.90;;;;;;5092387;28;20518;-67
2022/07/06 01:48:42;;;;;;;3.53;1.67;;;14.50;99.90;;;;;;5093332;28;20162;-74
2022/07/06 01:51:08;;;;;;;1.50;1.30;;;14.50;99.90;;;;;;5092731;28;20186;-68
2022/07/06 01:53:34;;;;;;;1.53;1.43;;;14.50;99.90;;;;;;5091879;28;20199;-68
2022/07/06 01:56:00;;;;;;;3.20;1.70;;;14.40;99.90;;;;;;5091956;28;21204;-68
2022/07/06 01:58:26;;;;;;;1.23;1.03;;;14.30;99.90;;;;;;5093192;28;20172;-70
2022/07/06 02:00:51;;;;;;;1.97;1.23;;;14.40;99.90;;;;;;5093300;28;20207;-67
2022/07/06 02:03:17;;;;;;;2.20;1.07;;;14.40;99.90;;;;;;5092085;28;20237;-68
2022/07/06 02:05:42;;;;;;;5.70;2.13;;;14.40;99.90;;;;;;5090960;28;20193;-70
2022/07/06 02:08:08;;;;;;;2.37;1.50;;;14.40;99.90;;;;;;5092163;28;20756;-75
2022/07/06 02:10:34;;;;;;;3.53;1.43;;;14.40;99.90;;;;;;5092411;28;20172;-69
2022/07/06 02:12:59;;;;;;;2.70;1.47;;;14.40;99.90;;;;;;5091829;28;20200;-67
2022/07/06 02:15:25;;;;;;;2.40;1.30;;;14.40;99.90;;;;;;5091706;28;20303;-67
2022/07/06 02:17:51;;;;;;;4.30;1.30;;;14.40;99.90;;;;;;5092842;28;20173;-75
2022/07/06 02:20:16;;;;;;;1.40;1.10;;;14.50;99.90;;;;;;5093128;28;20660;-67
2022/07/06 02:22:42;;;;;;;5.67;1.20;;;14.50;99.90;;;;;;5091942;28;20672;-67
2022/07/06 02:25:08;;;;;;;2.80;1.17;;;14.50;99.90;;;;;;5091556;28;20660;-68
2022/07/06 02:27:34;;;;;;;2.07;1.40;;;14.50;99.90;;;;;;5092086;28;20241;-68
2022/07/06 02:29:59;;;;;;;5.77;2.80;;;14.50;99.90;;;;;;5091320;28;20837;-75
2022/07/06 02:32:25;;;;;;;2.47;2.10;;;14.50;99.90;;;;;;5092762;28;20169;-68
2022/07/06 02:34:52;;;;;;;2.47;1.00;;;14.50;99.90;;;;;;5095642;28;20198;-68
2022/07/06 02:37:18;;;;;;;1.80;1.30;;;14.50;99.90;;;;;;5096758;28;20511;-67
2022/07/06 02:39:44;;;;;;;1.30;1.20;;;14.50;99.90;;;;;;5095483;28;20838;-72
2022/07/06 02:42:09;;;;;;;1.63;1.53;;;14.40;99.90;;;;;;5096156;28;20418;-71
2022/07/06 02:44:35;;;;;;;1.37;1.27;;;14.40;99.90;;;;;;5095250;28;20744;-67
2022/07/06 02:47:01;;;;;;;2.67;1.20;;;14.40;99.90;;;;;;5096029;28;20257;-68
2022/07/06 02:49:27;;;;;;;3.10;1.40;;;14.40;99.90;;;;;;5096534;28;20161;-74
2022/07/06 02:51:52;;;;;;;4.80;1.30;;;14.40;99.90;;;;;;5096363;28;20178;-68
2022/07/06 02:54:18;;;;;;;3.20;1.70;;;14.40;99.90;;;;;;5094555;28;20276;-68
2022/07/06 02:56:44;;;;;;;1.40;1.30;;;14.40;99.90;;;;;;5096484;28;20162;-67
2022/07/06 02:59:10;;;;;;;2.57;1.10;;;14.40;99.90;;;;;;5096461;28;20222;-67
2022/07/06 03:01:36;;;;;;;4.40;1.60;;;14.40;99.90;;;;;;5096581;28;20392;-76
2022/07/06 03:04:01;;;;;;;1.50;1.40;;;14.20;99.90;;;;;;5093261;28;20217;-68
2022/07/06 03:06:27;;;;;;;2.30;1.43;;;14.10;99.90;;;;;;5095997;28;20205;-74
2022/07/06 03:08:53;;;;;;;1.60;1.50;;;14.10;99.90;;;;;;5095272;28;20180;-67
2022/07/06 03:11:18;;;;;;;3.33;1.33;;;14.00;99.90;;;;;;5096234;28;20158;-67
2022/07/06 03:13:44;;;;;;;6.43;1.57;;;13.90;99.90;;;;;;5094216;28;20201;-69
2022/07/06 03:16:09;;;;;;;1.73;1.60;;;14.00;99.90;;;;;;5096171;28;20257;-74
2022/07/06 03:18:35;;;;;;;3.53;1.40;;;14.00;99.90;;;;;;5096058;28;20162;-75
2022/07/06 03:21:03;;;;;;;3.60;1.40;;;14.00;99.90;;;;;;5096070;28;20174;-74
2022/07/06 03:23:30;;;;;;;3.83;1.30;;;14.00;99.90;;;;;;5093265;28;20228;-68
2022/07/06 03:25:55;;;;;;;4.33;1.50;;;14.00;99.90;;;;;;5095634;28;20396;-75
2022/07/06 03:28:21;;;;;;;1.60;1.47;;;14.10;99.90;;;;;;5095873;28;20921;-67
2022/07/06 03:30:47;;;;;;;2.33;1.23;;;14.10;99.90;;;;;;5095872;28;20546;-67
2022/07/06 03:33:12;;;;;;;2.33;1.30;;;14.00;99.90;;;;;;5092747;28;20184;-68
2022/07/06 03:35:38;;;;;;;1.97;1.87;;;14.00;99.90;;;;;;5095825;28;20211;-75
2022/07/06 03:38:04;;;;;;;1.60;1.00;;;13.90;99.90;;;;;;5095670;28;20165;-68
2022/07/06 03:40:29;;;;;;;3.57;1.40;;;13.90;99.90;;;;;;5095551;28;20248;-67
2022/07/06 03:42:55;;;;;;;1.73;1.40;;;13.90;99.90;;;;;;5092728;28;20185;-68
2022/07/06 03:45:21;;;;;;;3.73;1.20;;;13.90;99.90;;;;;;5094612;28;20182;-75
2022/07/06 03:47:46;;;;;;;2.13;1.10;;;13.90;99.90;;;;;;5095484;28;20162;-75
2022/07/06 03:50:12;;;;;;;3.00;1.20;;;14.00;99.90;;;;;;5094220;28;20627;-74
2022/07/06 03:52:39;;;;;;;2.97;1.63;;;13.80;99.90;;;;;;5093103;28;20192;-68
2022/07/06 03:55:10;;;;;;;1.33;1.10;;;13.80;99.90;;;;;;5095372;28;20177;-74
2022/07/06 03:57:38;;;;;;;3.37;1.50;;;13.80;99.90;;;;;;5095439;28;20492;-75
2022/07/06 04:00:04;;;;;;;1.00;0.90;;;13.80;99.90;;;;;;5095034;28;20739;-73
2022/07/06 04:02:30;;;;;;;2.30;1.33;;;13.80;99.90;;;;;;5092362;28;20403;-68
2022/07/06 04:04:56;;;;;;;4.70;1.50;;;13.80;99.90;;;;;;5095120;28;20460;-67
2022/07/06 04:07:22;;;;;;;2.00;1.80;;;13.90;99.90;;;;;;5095153;28;20562;-66
2022/07/06 04:09:47;;;;;;;1.43;1.33;;;13.90;99.90;;;;;;5095158;28;20689;-68
2022/07/06 04:12:13;;;;;;;2.37;1.33;;;13.90;99.90;;;;;;5094183;28;20226;-68
2022/07/06 04:14:39;;;;;;;1.47;1.23;;;13.90;99.90;;;;;;5092462;28;20236;-74
2022/07/06 04:19:49;;;;;;;1.33;1.20;;;13.80;99.90;;;;;;5094248;28;20261;-69
2022/07/06 04:22:15;;;;;;;1.57;1.33;;;13.90;99.90;;;;;;5093747;28;20477;-74
2022/07/06 04:24:41;;;;;;;1.97;1.57;;;13.90;99.90;;;;;;5092663;28;20225;-75
2022/07/06 04:27:07;;;;;;;3.10;1.73;;;13.80;99.90;;;;;;5094723;28;20407;-74
2022/07/06 04:29:32;;;;;;;3.30;1.67;;;13.80;99.90;;;;;;5094764;28;20174;-75
2022/07/06 04:31:58;;;;;;;2.53;1.70;;;13.70;99.90;;;;;;5094450;28;20227;-75
2022/07/06 04:34:24;;;;;;;3.77;1.60;;;13.80;99.90;;;;;;5091731;28;20213;-72
2022/07/06 04:36:49;;;;;;;4.93;1.70;;;13.80;99.90;;;;;;5094038;28;20541;-68
2022/07/06 04:39:15;;;;;;;3.33;1.70;;;13.90;99.90;;;;;;5094099;28;20278;-75
2022/07/06 04:41:40;;;;;;;1.80;1.40;;;13.90;99.90;;;;;;5092306;28;20565;-72
2022/07/06 04:44:06;;;;;;;2.03;1.33;;;13.80;99.90;;;;;;5091935;28;20217;-75
2022/07/06 04:46:32;;;;;;;1.80;1.30;;;13.90;99.90;;;;;;5094341;28;20158;-67
2022/07/06 04:48:57;;;;;;;4.80;1.50;;;14.00;99.90;;;;;;5094269;28;20214;-68
2022/07/06 04:51:23;;;;;;;3.13;1.47;;;14.00;99.90;;;;;;5094156;28;20314;-67
2022/07/06 04:53:49;;;;;;;3.00;1.50;;;14.10;99.90;;;;;;5091321;28;20216;-73
2022/07/06 04:56:14;;;;;;;2.00;1.33;;;14.20;99.90;;;;;;5093097;28;20166;-73
2022/07/06 04:58:40;;;;;;;2.17;1.60;;;14.40;99.90;;;;;;5093994;28;20172;-74
2022/07/06 05:01:06;;;;;;;2.43;1.80;;;14.50;99.90;;;;;;5093924;28;20258;-74
2022/07/06 05:03:33;;;;;;;2.17;1.30;;;14.60;99.90;;;;;;5092030;28;20243;-75
2022/07/06 05:05:58;;;;;;;6.70;4.07;;;14.70;99.90;;;;;;5092003;28;20166;-66
2022/07/06 05:08:24;;;;;;;4.73;2.17;;;14.80;99.90;;;;;;5093993;28;20411;-75
2022/07/06 05:10:51;;;;;;;3.50;1.33;;;14.80;99.90;;;;;;5094025;28;20166;-66
2022/07/06 05:13:17;;;;;;;3.80;0.97;;;14.90;99.90;;;;;;5088502;28;20166;-74
2022/07/06 05:15:43;;;;;;;1.93;1.53;;;14.90;99.90;;;;;;5092044;28;20819;-68
2022/07/06 05:18:08;;;;;;;1.47;1.20;;;15.00;99.90;;;;;;5093731;28;20407;-67
2022/07/06 05:20:34;;;;;;;5.67;1.73;;;15.00;99.90;;;;;;5093759;28;20562;-68
2022/07/06 05:23:00;;;;;;;4.03;1.33;;;15.10;99.90;;;;;;5091610;28;20580;-67
2022/07/06 05:25:25;;;;;;;1.37;1.27;;;15.10;99.90;;;;;;5093522;28;20247;-68
2022/07/06 05:27:51;;;;;;;2.77;1.17;;;15.00;99.90;;;;;;5092611;28;20227;-68
2022/07/06 05:30:17;;;;;;;4.10;2.00;;;15.10;99.90;;;;;;5093614;28;20260;-67
2022/07/06 05:32:42;;;;;;;4.20;1.47;;;15.10;99.90;;;;;;5089667;28;20581;-73
2022/07/06 05:35:08;;;;;;;2.07;1.10;;;15.10;99.90;;;;;;5093089;28;20193;-70
2022/07/06 05:37:34;;;;;;;1.40;0.93;;;15.10;99.90;;;;;;5093504;28;20189;-67
2022/07/06 05:40:00;;;;;;;1.30;1.10;;;15.20;99.90;;;;;;5093371;28;20861;-74
2022/07/06 05:42:26;;;;;;;4.30;3.50;;;15.30;99.90;;;;;;5090618;28;20180;-68
2022/07/06 05:44:55;;;;;;;2.00;1.87;;;15.30;99.90;;;;;;5093310;28;20443;-75
2022/07/06 05:50:12;;;;;;;1.77;1.20;;;15.40;99.90;;;;;;5092494;28;20900;-68
2022/07/06 05:52:38;;;;;;;1.17;1.07;;;15.40;99.90;;;;;;5090999;28;20447;-67
2022/07/06 05:55:05;;;;;;;3.33;1.53;;;15.30;99.90;;;;;;5092991;28;20424;-69
2022/07/06 05:57:30;;;;;;;1.00;0.80;;;15.30;99.90;;;;;;5093131;28;20450;-68
2022/07/06 05:59:56;;;;;;;1.10;0.97;;;15.40;99.90;;;;;;5093167;28;20896;-74
2022/07/06 06:02:22;;;;;;;3.60;1.23;;;15.30;99.90;;;;;;5091267;28;20647;-69
2022/07/06 06:04:47;;;;;;;2.83;1.07;;;15.40;99.90;;;;;;5092717;28;20197;-68
2022/07/06 06:07:13;;;;;;;1.07;0.90;;;15.50;99.90;;;;;;5091732;28;20165;-68
2022/07/06 06:09:39;;;;;;;7.03;1.10;;;15.60;99.90;;;;;;5093030;28;20170;-74
2022/07/06 06:12:05;;;;;;;1.33;1.13;;;15.60;99.90;;;;;;5091419;28;20185;-74
2022/07/06 06:14:31;;;;;;;1.00;0.90;;;15.70;99.90;;;;;;5090338;28;20386;-74
2022/07/06 06:16:57;;;;;;;1.47;1.33;;;15.70;99.90;;;;;;5093145;28;20407;-68
2022/07/06 06:19:23;;;;;;;1.53;1.03;;;15.70;99.90;;;;;;5093025;28;20530;-67
2022/07/06 06:21:48;;;;;;;5.47;1.20;;;15.60;99.90;;;;;;5091715;28;20523;-74
2022/07/06 06:24:14;;;;;;;1.83;0.93;;;15.60;99.90;;;;;;5091106;28;20209;-74
2022/07/06 06:26:39;;;;;;;1.70;1.00;;;15.60;99.90;;;;;;5092922;28;20215;-68
2022/07/06 06:29:05;;;;;;;1.20;1.10;;;15.70;99.90;;;;;;5092835;28;20531;-68
2022/07/06 06:31:31;;;;;;;1.13;0.93;;;15.80;99.90;;;;;;5091703;28;20182;-68
2022/07/06 06:33:57;;;;;;;2.43;1.23;;;15.90;99.90;;;;;;5091857;28;20185;-68
2022/07/06 06:36:22;;;;;;;1.43;1.00;;;15.80;99.90;;;;;;5093015;28;20509;-69
2022/07/06 06:38:48;;;;;;;1.77;1.07;;;15.90;99.90;;;;;;5092827;28;20201;-75
2022/07/06 06:41:13;;;;;;;2.23;0.90;;;16.00;99.90;;;;;;5091332;28;20200;-68
2022/07/06 06:43:40;;;;;;;1.60;1.50;;;16.00;99.90;;;;;;5090030;28;20208;-74
2022/07/06 06:46:05;;;;;;;1.20;1.10;;;16.00;99.90;;;;;;5092692;28;20174;-68
2022/07/06 06:48:31;;;;;;;1.10;0.93;;;16.00;99.90;;;;;;5092508;28;20396;-74
2022/07/06 06:50:57;;;;;;;2.80;1.40;;;16.10;99.90;;;;;;5091486;28;20574;-68
2022/07/06 06:53:23;;;;;;;1.07;0.97;;;16.10;99.90;;;;;;5091719;28;20247;-67
2022/07/06 06:55:49;;;;;;;2.17;1.13;;;16.20;99.90;;;;;;5092512;28;20404;-73
2022/07/06 06:58:14;;;;;;;4.40;1.23;;;16.20;99.90;;;;;;5091661;28;20177;-74
2022/07/06 07:00:40;;;;;;;1.37;0.90;;;16.20;99.90;;;;;;5091776;28;20660;-73
2022/07/06 07:03:06;;;;;;;4.03;0.90;;;16.00;99.90;;;;;;5089594;28;20180;-74
2022/07/06 07:05:31;;;;;;;4.37;1.27;;;16.00;99.90;;;;;;5092628;28;20170;-68
2022/07/06 07:07:58;;;;;;;1.33;0.80;;;16.10;99.90;;;;;;5092483;28;20177;-67
2022/07/06 07:10:26;;;;;;;1.20;0.97;;;16.10;99.90;;;;;;5092208;28;20169;-67
2022/07/06 07:12:52;;;;;;;1.70;0.93;;;16.20;99.90;;;;;;5090556;28;20427;-67
2022/07/06 07:15:17;;;;;;;3.43;1.10;;;16.20;99.90;;;;;;5083973;28;20918;-74
2022/07/06 07:17:43;;;;;;;2.33;0.97;;;16.30;99.90;;;;;;5071505;28;20406;-68
2022/07/06 07:20:09;;;;;;;0.90;0.80;;;16.40;99.90;;;;;;5081145;28;20165;-73
2022/07/06 07:22:35;;;;;;;2.47;0.87;;;16.40;99.90;;;;;;5092990;28;20239;-67
2022/07/06 07:25:01;;;;;;;2.47;1.10;;;16.30;99.90;;;;;;5091150;28;20459;-67
2022/07/06 07:27:27;;;;;;;1.20;0.90;;;16.20;99.90;;;;;;5075754;28;20532;-74
2022/07/06 07:29:53;;;;;;;2.17;0.90;;;16.30;99.90;;;;;;5078000;28;20227;-73
2022/07/06 07:32:19;;;;;;;1.10;1.00;;;16.40;99.90;;;;;;5092806;28;20477;-69
2022/07/06 07:34:45;;;;;;;1.23;1.10;;;16.40;99.90;;;;;;5093646;28;20777;-74
2022/07/06 07:37:11;;;;;;;5.27;1.10;;;16.40;99.90;;;;;;5075405;28;20415;-70
2022/07/06 07:39:36;;;;;;;1.83;1.17;;;16.30;99.90;;;;;;5075650;28;20174;-69
2022/07/06 07:42:02;;;;;;;4.47;1.50;;;16.40;99.90;;;;;;5092970;28;20181;-70
2022/07/06 07:44:28;;;;;;;1.30;0.93;;;16.50;99.90;;;;;;5094781;28;20205;-73
2022/07/06 07:46:54;;;;;;;1.53;0.90;;;16.40;99.90;;;;;;5085560;28;20452;-74
2022/07/06 07:49:20;;;;;;;1.90;1.07;;;16.60;99.90;;;;;;5095475;28;20276;-74
2022/07/06 07:51:49;;;;;;;2.27;0.97;;;16.60;99.90;;;;;;5079001;28;20228;-74
2022/07/06 07:54:15;;;;;;;4.33;1.00;;;16.70;99.90;;;;;;5082778;28;20447;-75
2022/07/06 07:56:41;;;;;;;2.20;1.10;;;16.80;99.90;;;;;;5094293;28;20946;-69
2022/07/06 07:59:08;;;;;;;2.30;1.30;;;17.00;99.90;;;;;;5087825;28;20413;-69
2022/07/06 08:01:34;;;;;;;1.67;1.10;;;17.00;99.90;;;;;;5075123;28;20703;-70
2022/07/06 08:03:59;;;;;;;1.77;1.00;;;17.20;99.90;;;;;;5074022;28;20950;-74
2022/07/06 08:06:25;;;;;;;2.07;1.10;;;17.40;99.90;;;;;;5083231;28;20432;-73
2022/07/06 08:08:51;;;;;;;5.40;1.63;;;17.40;98.30;;;;;;5095220;28;20174;-74
2022/07/06 08:11:17;;;;;;;3.17;1.30;;;17.40;98.40;;;;;;5094564;28;20404;-75
2022/07/06 08:13:43;;;;;;;2.80;1.13;;;17.50;99.40;;;;;;5094084;28;20276;-72
2022/07/06 08:16:09;;;;;;;3.73;1.57;;;17.60;99.90;;;;;;5093888;28;20178;-69
2022/07/06 08:18:35;;;;;;;2.17;1.30;;;17.70;99.90;;;;;;5094863;28;20200;-70
2022/07/06 08:21:01;;;;;;;3.23;1.17;;;17.50;94.80;;;;;;5093999;28;20804;-75
2022/07/06 08:23:27;;;;;;;4.40;1.07;;;17.50;94.80;;;;;;5093819;28;20455;-69
2022/07/06 08:25:53;;;;;;;2.50;1.00;;;17.40;94.80;;;;;;5093808;28;20180;-75
2022/07/06 08:28:19;;;;;;;3.43;1.00;;;17.10;94.60;;;;;;5094314;28;20624;-74
2022/07/06 08:30:44;;;;;;;2.97;1.13;;;17.00;95.90;;;;;;5094200;28;20169;-68
2022/07/06 08:33:10;;;;;;;1.90;1.00;;;17.00;99.30;;;;;;5093790;28;20396;-69
2022/07/06 08:35:36;;;;;;;1.97;1.00;;;16.90;98.20;;;;;;5093422;28;20161;-74
2022/07/06 08:38:01;;;;;;;0.90;0.80;;;16.70;99.90;;;;;;5094614;28;20175;-68
2022/07/06 08:40:34;;;;;;;1.63;0.93;;;16.40;99.90;;;;;;5094530;28;20268;-73
2022/07/06 08:43:00;;;;;;;2.20;0.90;;;16.40;99.90;;;;;;5093572;28;20648;-74
2022/07/06 08:45:27;;;;;;;2.80;1.10;;;16.40;99.90;;;;;;5093010;28;20466;-75
2022/07/06 08:47:54;;;;;;;1.67;0.90;;;16.50;99.90;;;;;;5093910;28;20463;-74
2022/07/06 08:50:20;;;;;;;1.83;0.80;;;16.80;99.90;;;;;;5094445;28;20428;-73
2022/07/06 08:52:49;;;;;;;1.30;0.97;;;16.80;99.90;;;;;;5093304;28;20828;-69
2022/07/06 08:55:16;;;;;;;1.10;0.80;;;16.40;99.90;;;;;;5094151;28;20506;-69
2022/07/06 08:57:42;;;;;;;2.90;1.00;;;16.30;99.90;;;;;;5091992;28;20444;-70
2022/07/06 09:00:08;;;;;;;1.93;1.17;;;16.30;99.90;;;;;;5091478;28;20434;-68
2022/07/06 09:02:35;;;;;;;2.23;1.13;;;16.30;99.90;;;;;;5093179;28;20679;-73
2022/07/06 09:05:03;;;;;;;2.80;1.10;;;16.50;99.90;;;;;;5081310;28;20468;-74
2022/07/06 09:07:29;;;;;;;1.90;0.80;;;16.50;99.90;;;;;;5093291;28;20457;-73
2022/07/06 09:09:56;;;;;;;1.27;1.17;;;16.50;99.90;;;;;;5093723;28;20467;-72
2022/07/06 09:12:22;;;;;;;1.03;0.80;;;16.50;99.90;;;;;;5092830;28;20937;-70
2022/07/06 09:14:48;;;;;;;1.60;0.93;;;16.60;99.90;;;;;;5086330;28;20565;-70
2022/07/06 09:17:14;;;;;;;1.27;1.00;;;16.50;99.90;;;;;;5092729;28;20414;-71
2022/07/06 09:19:39;;;;;;;3.90;1.10;;;16.70;99.90;;;;;;5090910;28;20190;-73
2022/07/06 09:22:05;;;;;;;1.77;1.00;;;16.90;99.90;;;;;;5092817;28;20414;-71
2022/07/06 09:24:31;;;;;;;2.33;1.00;;;17.00;99.90;;;;;;5092455;28;20224;-71
2022/07/06 09:26:58;;;;;;;2.70;0.90;;;17.10;99.90;;;;;;5093731;28;20166;-72
2022/07/06 09:29:31;;;;;;;3.23;1.13;;;17.20;99.90;;;;;;5087853;28;20432;-69
2022/07/06 09:32:01;;;;;;;1.00;0.90;;;17.50;99.90;;;;;;5093404;28;20391;-70
2022/07/06 09:34:54;;;;;;;1.07;0.80;;;17.80;99.90;;;;;;5075694;28;20452;-70
2022/07/06 09:37:23;;;;;;;1.50;1.00;;;18.00;99.90;;;;;;5072139;28;20926;-69
2022/07/06 09:39:49;;;;;;;2.03;0.83;;;17.90;99.90;;;;;;5089883;28;20798;-66
2022/07/06 09:42:14;;;;;;;1.00;0.80;;;18.10;99.90;;;;;;5089872;28;20439;-66
2022/07/06 09:44:41;;;;;;;1.00;0.80;;;18.10;99.90;;;;;;5074375;28;20847;-66
2022/07/06 09:47:11;;;;;;;2.07;0.90;;;18.00;99.90;;;;;;5079791;28;20166;-66
2022/07/06 09:49:38;;;;;;;6.93;1.90;;;18.10;99.90;;;;;;5090711;28;20945;-74
2022/07/06 09:52:09;;;;;;;1.70;0.80;;;18.20;99.90;;;;;;5092965;28;20427;-66
2022/07/06 09:54:36;;;;;;;2.03;1.03;;;18.40;99.90;;;;;;5092839;28;21042;-73
2022/07/06 09:57:03;;;;;;;1.27;1.13;;;18.40;99.90;;;;;;5093349;28;20465;-73
2022/07/06 09:59:31;;;;;;;1.10;1.00;;;18.40;99.90;;;;;;5089867;28;20438;-74
2022/07/06 10:02:04;;;;;;;1.10;0.70;;;18.30;99.90;;;;;;5092364;28;20414;-73
2022/07/06 10:04:30;;;;;;;1.00;0.80;;;18.00;99.90;;;;;;5086360;28;20467;-74
2022/07/06 10:06:57;;;;;;;2.37;1.00;;;17.80;99.90;;;;;;5073092;28;20400;-67
2022/07/06 10:09:26;;;;;;;1.43;1.03;;;17.80;99.90;;;;;;5077839;28;20473;-68
2022/07/06 10:12:00;;;;;;;5.10;1.10;;;17.80;99.90;;;;;;5092745;28;20396;-66
2022/07/06 10:14:30;;;;;;;3.17;1.03;;;17.60;99.90;;;;;;5087839;28;20440;-69
2022/07/06 10:16:58;;;;;;;4.30;0.90;;;17.80;99.90;;;;;;5093006;28;20403;-69
2022/07/06 10:19:24;;;;;;;1.00;0.70;;;17.90;99.90;;;;;;5087112;28;20428;-72
2022/07/06 10:21:51;;;;;;;1.10;0.83;;;18.20;99.90;;;;;;5091946;28;20454;-66
2022/07/06 10:24:19;;;;;;;1.40;1.10;;;18.50;99.90;;;;;;5086422;28;20459;-65
2022/07/06 10:26:46;;;;;;;1.70;0.87;;;18.70;99.90;;;;;;5072741;28;20393;-73
2022/07/06 10:29:12;;;;;;;1.63;0.83;;;18.80;99.90;;;;;;5074105;28;20424;-73
2022/07/06 10:31:43;;;;;;;1.67;0.70;;;18.90;95.30;;;;;;5072656;28;20393;-71
2022/07/06 10:34:11;;;;;;;1.50;0.70;;;18.80;95.30;;;;;;5085804;28;20802;-74
2022/07/06 10:36:39;;;;;;;1.40;0.80;;;18.80;95.30;;;;;;5087648;28;20449;-66
2022/07/06 10:41:02;;;;;;;3.13;0.93;;;18.80;95.30;;;;;;5075795;28;20944;-71
2022/07/06 10:41:52;;;;;;;2.13;0.90;;;18.60;95.20;;;;;;5074960;28;20435;-73
2022/07/06 10:44:21;;;;;;;1.20;0.80;;;18.40;95.20;;;;;;5078479;28;20466;-74
2022/07/06 10:46:55;;;;;;;3.00;1.10;;;18.40;95.10;;;;;;5092826;28;20406;-74
2022/07/06 10:49:22;;;;;;;4.03;1.10;;;18.30;95.10;;;;;;5079074;28;20434;-66
2022/07/06 10:51:49;;;;;;;2.33;0.63;;;18.40;95.10;;;;;;5090730;28;20443;-67
2022/07/06 10:54:15;;;;;;;1.20;0.80;;;18.30;95.10;;;;;;5094677;28;20423;-74
2022/07/06 10:56:51;;;;;;;2.77;0.97;;;18.40;95.10;;;;;;5080779;28;20945;-74
2022/07/06 10:59:23;;;;;;;2.40;1.23;;;18.40;95.10;;;;;;5080491;28;20454;-74
2022/07/06 11:02:17;;;;;;;1.40;0.70;;;18.40;95.10;;;;;;5080271;28;20439;-73
2022/07/06 11:04:48;;;;;;;1.47;0.70;;;18.60;95.20;;;;;;5075958;28;20458;-66
2022/07/06 11:07:18;;;;;;;1.63;0.90;;;18.70;95.20;;;;;;5094421;28;20502;-65
2022/07/06 11:10:00;;;;;;;1.30;0.80;;;18.70;91.80;;;;;;5093512;28;20489;-72
2022/07/06 11:12:26;;;;;;;1.03;0.80;;;18.90;91.50;;;;;;5093988;28;20415;-71
2022/07/06 11:14:53;;;;;;;2.07;0.73;;;19.10;87.10;;;;;;5095338;28;20427;-73
2022/07/06 11:17:19;;;;;;;2.10;1.00;;;19.30;86.30;;;;;;5075863;28;20400;-72
2022/07/06 11:20:11;;;;;;;1.40;1.10;;;19.40;81.50;;;;;;5081749;28;20439;-67
2022/07/06 11:22:38;;;;;;;3.20;0.87;;;19.70;73.40;;;;;;5068206;28;20915;-66
2022/07/06 11:25:05;;;;;;;2.23;0.80;;;20.20;80.90;;;;;;5079096;28;20545;-73
2022/07/06 11:27:33;;;;;;;0.97;0.83;;;20.60;83.60;;;;;;5075830;28;20396;-66
2022/07/06 11:29:59;;;;;;;1.73;0.90;;;21.50;84.70;;;;;;5081664;28;20428;-72
2022/07/06 11:32:26;;;;;;;6.63;0.90;;;22.10;70.60;;;;;;5093923;28;20455;-66
2022/07/06 11:34:53;;;;;;;1.00;0.70;;;22.70;73.00;;;;;;5092283;28;20841;-65
2022/07/06 11:37:20;;;;;;;2.43;1.10;;;23.30;61.00;;;;;;5075566;28;20442;-73
2022/07/06 11:39:47;;;;;;;2.43;0.83;;;23.50;60.50;;;;;;5079200;28;20990;-69
2022/07/06 11:42:15;;;;;;;1.20;0.73;;;23.20;54.10;;;;;;5074509;28;20487;-70
2022/07/06 11:44:42;;;;;;;1.00;0.80;;;22.40;39.30;;;;;;5075367;28;20460;-72
2022/07/06 11:47:09;;;;;;;1.10;0.73;;;21.40;27.40;;;;;;5095084;28;20438;-72
2022/07/06 11:49:36;;;;;;;1.47;0.70;;;20.60;25.20;;;;;;5094432;28;20428;-65
2022/07/06 11:52:11;;;;;;;1.00;0.77;;;20.10;25.00;;;;;;5094420;28;20427;-73
2022/07/06 11:54:36;;;;;;;1.30;1.20;;;19.50;29.40;;;;;;5095246;28;21001;-65
2022/07/06 12:14:53;;;;;;;1.40;0.80;;;19.50;29.20;;;;;;5070196;28;21135;-72
2022/07/06 12:17:19;;;;;;;1.17;0.87;;;19.80;33.10;;;;;;5069684;28;20421;-65
2022/07/06 12:19:44;;;;;;;3.70;0.97;;;19.90;39.50;;;;;;5068227;28;20425;-71
2022/07/06 12:22:10;;;;;;;1.57;0.80;;;20.10;39.50;;;;;;5059382;28;20175;-68
2022/07/06 12:24:43;;;;;;;1.30;0.70;;;20.00;26.00;;;;;;5070065;28;20190;-65
2022/07/06 12:27:15;;;;;;;1.03;0.87;;;20.30;28.90;;;;;;5050196;28;20928;-70
2022/07/06 12:29:41;;;;;;;1.97;0.70;;;21.20;26.40;;;;;;5053379;28;20424;-64
2022/07/06 12:32:13;;;;;;;4.30;0.93;;;22.10;13.10;;;;;;5056793;28;20467;-65
2022/07/06 12:34:39;;;;;;;1.70;0.87;;;22.80;14.40;;;;;;5069841;28;20464;-71
2022/07/06 12:37:11;;;;;;;2.70;0.70;;;23.00;10.00;;;;;;5070014;28;20442;-68
2022/07/06 12:39:42;;;;;;;3.37;0.60;;;23.70;9.00;;;;;;5065736;28;20212;-70
2022/07/06 12:42:08;;;;;;;2.07;0.70;;;24.00;2.90;;;;;;5049204;28;20912;-69
2022/07/06 12:44:43;;;;;;;1.97;0.70;;;23.80;1.00;;;;;;5066280;28;20448;-73
2022/07/06 12:47:10;;;;;;;2.20;0.60;;;23.30;1.00;;;;;;5068781;28;20186;-65
2022/07/06 12:49:38;;;;;;;1.10;0.60;;;22.90;1.00;;;;;;5052263;28;20433;-72
2022/07/06 12:52:06;;;;;;;2.67;0.70;;;22.40;1.00;;;;;;5062145;28;20809;-71
2022/07/06 12:54:44;;;;;;;1.43;0.90;;;22.60;1.00;;;;;;5059334;28;20459;-65
2022/07/06 12:57:13;;;;;;;1.10;0.67;;;23.10;1.00;;;;;;5049694;28;20398;-66
2022/07/06 12:59:49;;;;;;;5.10;3.93;;;22.70;1.00;;;;;;5065189;28;20493;-66
2022/07/06 13:02:37;;;;;;;1.57;1.17;;;22.10;1.00;;;;;;5060836;28;20431;-66
2022/07/06 13:05:06;;;;;;;1.70;1.10;;;21.70;1.00;;;;;;5069360;28;20424;-69
2022/07/06 13:07:37;;;;;;;1.63;1.23;;;21.60;1.00;;;;;;5053258;28;20421;-69
2022/07/06 13:10:11;;;;;;;6.83;0.77;;;22.20;1.00;;;;;;5049419;28;20397;-65
2022/07/06 13:12:37;;;;;;;2.70;0.80;;;23.10;1.00;;;;;;5062933;28;20507;-66